Langley Air Force Base Hampton US
ICAO: KLFI
IATA: LFI
Category: Large
Scheduled Services: No

Elevation: 11 ft
TransAlt. 18000 ft.

Airport Communications:
NORFOLK APP/DEP:124.9
ATIS:27.01
CLNC DEL:118.85
GND:121.7
NASA OPS:123.375
PMSV METRO:23.98
CNSOLIDATED CMD POST:25.125
PTD:141.75
TWR:125

KLFI Zoom In..

If you have problems with the map follow the link
https://www.worldairports.se/pages/airport.php?
ICAO=KLFI

Runways:

(A) RW 08 length 10002 ft width 150 ft
ILS 109.90 / hdg 78

(B) RW 26 length 10002 ft width 150 ft
ILS 109.90 / hdg 258

Location; KLFI
Day. 16 / Time. 02.56 Zulu
* Altimeter: 29.70
* Temperature: 08° c. 46.4°f.
* Wind from: 270° Speed 13 kn with Gusts up to 19 kn.
Dewpoint: 08° c.
Visibility: 5 Statute Miles.
Clouds: Broken 400 ft.
Clouds: Overcast 900 ft.
Conditions: Mist.

KLFI 160256Z 27013G19KT 5SM BR BKN004 OVC009 08/08 A2970 RMK AO2A SLPNO 60001 T00810080 $


Wind From 270°
Speed 13 kn.

 
 
jpsmedia.com for Web Design worldairports.se 2018   terms of use